Time;durP1;ratioP1;P1;durP2;ratioP2;P2;SDS_P1;SDS_P2;PMS_P1;PMS_P2;Temp;Humidity;BMP_temperature;BMP_pressure;BME280_temperature;BME280_humidity;BME280_pressure;Samples;Min_cycle;Max_cycle;Signal;HPM_P1;HPM_P2
2022/05/05 00:01:33;;;;;;;7.13;3.90;;;11.60;95.20;;;;;;4865490;29;20036;-83
2022/05/05 00:03:59;;;;;;;6.45;3.80;;;11.50;95.30;;;;;;4882419;29;20028;-82
2022/05/05 00:06:26;;;;;;;8.27;3.83;;;11.60;95.40;;;;;;4884023;29;20752;-82
2022/05/05 00:08:51;;;;;;;7.60;3.30;;;11.60;95.40;;;;;;4891101;29;20176;-83
2022/05/05 00:16:46;;;;;;;6.50;4.30;;;11.60;95.70;;;;;;4880051;29;20064;-82
2022/05/05 00:19:11;;;;;;;6.53;3.55;;;11.50;95.70;;;;;;4880071;29;20138;-83
2022/05/05 00:21:38;;;;;;;6.35;3.50;;;11.50;95.80;;;;;;4880431;29;20057;-83
2022/05/05 00:24:05;;;;;;;8.70;4.00;;;11.50;95.80;;;;;;4889326;29;20061;-82
2022/05/05 00:26:31;;;;;;;7.47;3.50;;;11.50;95.90;;;;;;4874996;29;20025;-82
2022/05/05 00:28:56;;;;;;;6.32;3.88;;;11.50;96.00;;;;;;4879698;29;20040;-82
2022/05/05 00:31:22;;;;;;;5.90;3.47;;;11.50;96.10;;;;;;4880219;29;20059;-82
2022/05/05 00:33:48;;;;;;;7.07;3.80;;;11.50;96.20;;;;;;4879693;29;20104;-82
2022/05/05 00:36:14;;;;;;;6.25;3.83;;;11.40;96.30;;;;;;4879449;29;20125;-81
2022/05/05 00:38:40;;;;;;;5.80;3.78;;;11.40;96.40;;;;;;4879434;29;20115;-82
2022/05/05 00:41:06;;;;;;;6.85;4.00;;;11.40;96.80;;;;;;4883750;29;20028;-82
2022/05/05 00:43:37;;;;;;;7.00;4.07;;;11.40;96.50;;;;;;4883585;29;20025;-83
2022/05/05 00:46:04;;;;;;;5.72;3.65;;;11.40;96.60;;;;;;4888650;29;20461;-82
2022/05/05 00:48:29;;;;;;;5.80;3.58;;;11.40;96.70;;;;;;4873508;29;20064;-83
2022/05/05 00:50:56;;;;;;;8.38;4.97;;;11.40;96.80;;;;;;4894303;29;20142;-82
2022/05/05 00:53:22;;;;;;;6.72;3.70;;;11.40;96.80;;;;;;4878692;29;20049;-82
2022/05/05 00:56:05;;;;;;;6.57;3.75;;;11.40;96.90;;;;;;4879044;29;20491;-83
2022/05/05 00:58:31;;;;;;;7.27;3.70;;;11.30;97.00;;;;;;4878850;29;20108;-82
2022/05/05 01:01:03;;;;;;;7.57;4.13;;;11.30;97.10;;;;;;4871627;29;20059;-83
2022/05/05 01:03:33;;;;;;;7.18;3.85;;;11.30;97.50;;;;;;4880493;29;20040;-83
2022/05/05 01:05:58;;;;;;;5.75;3.80;;;11.20;97.40;;;;;;4879099;29;20082;-82
2022/05/05 01:08:24;;;;;;;6.72;3.95;;;11.20;97.50;;;;;;4878717;29;20076;-82
2022/05/05 01:10:50;;;;;;;4.90;3.40;;;11.20;97.60;;;;;;4885979;29;20115;-82
2022/05/05 01:13:15;;;;;;;7.13;4.13;;;11.10;97.70;;;;;;4872278;29;20033;-83
2022/05/05 01:15:41;;;;;;;6.80;3.80;;;11.10;97.90;;;;;;4877645;29;20041;-83
2022/05/05 01:18:07;;;;;;;6.53;3.63;;;11.10;98.00;;;;;;4880646;29;20473;-82
2022/05/05 01:20:47;;;;;;;5.60;4.10;;;11.00;98.10;;;;;;4887963;29;20036;-82
2022/05/05 01:23:13;;;;;;;8.60;4.47;;;11.00;98.30;;;;;;4879333;29;20029;-82
2022/05/05 01:28:24;;;;;;;6.20;3.80;;;10.80;98.70;;;;;;4882441;29;20107;-83
2022/05/05 01:30:50;;;;;;;6.28;3.35;;;10.80;99.00;;;;;;4873646;29;20480;-83
2022/05/05 01:33:17;;;;;;;5.97;4.05;;;10.70;98.80;;;;;;4885345;29;20025;-83
2022/05/05 01:35:45;;;;;;;5.50;3.65;;;10.70;99.00;;;;;;4895900;29;20339;-83
2022/05/05 01:38:13;;;;;;;6.90;4.15;;;10.60;99.10;;;;;;4883973;29;20021;-82
2022/05/05 01:40:39;;;;;;;6.85;3.72;;;10.60;99.30;;;;;;4896679;29;20032;-82
2022/05/05 01:43:09;;;;;;;5.53;3.88;;;10.50;99.40;;;;;;4878299;29;20018;-82
2022/05/05 01:45:36;;;;;;;6.28;3.90;;;10.50;99.60;;;;;;4864032;29;20025;-82
2022/05/05 01:48:02;;;;;;;7.10;3.95;;;10.40;99.70;;;;;;4863829;29;20119;-82
2022/05/05 01:50:30;;;;;;;6.10;3.95;;;10.40;99.90;;;;;;4847228;29;20025;-82
2022/05/05 01:52:56;;;;;;;6.60;3.65;;;10.40;99.90;;;;;;4862197;29;20053;-82
2022/05/05 01:55:22;;;;;;;6.45;4.00;;;10.40;99.90;;;;;;4862436;29;20392;-82
2022/05/05 01:57:49;;;;;;;9.18;4.00;;;10.30;99.90;;;;;;4863826;29;20081;-82
2022/05/05 02:00:16;;;;;;;6.10;3.70;;;10.30;99.90;;;;;;4880415;29;20028;-82
2022/05/05 02:02:43;;;;;;;5.97;3.95;;;10.30;99.90;;;;;;4880299;29;20037;-82
2022/05/05 02:05:10;;;;;;;4.95;3.33;;;10.30;99.90;;;;;;4880010;29;20112;-83
2022/05/05 02:07:35;;;;;;;5.65;3.72;;;10.20;99.90;;;;;;4879644;29;20150;-82
2022/05/05 02:10:06;;;;;;;7.03;3.72;;;10.20;99.90;;;;;;4880613;29;20020;-82
2022/05/05 02:12:33;;;;;;;6.40;3.60;;;10.20;99.90;;;;;;4880802;29;20488;-82
2022/05/05 02:14:58;;;;;;;6.57;4.10;;;10.20;99.90;;;;;;4864472;29;20539;-82
2022/05/05 02:17:25;;;;;;;6.53;4.35;;;10.10;99.90;;;;;;4880095;29;20108;-82
2022/05/05 02:19:50;;;;;;;6.93;3.88;;;10.10;99.90;;;;;;4879714;29;20033;-82
2022/05/05 02:22:16;;;;;;;6.85;4.20;;;10.10;99.90;;;;;;4881567;29;20116;-83
2022/05/05 02:24:42;;;;;;;7.18;4.20;;;10.00;99.90;;;;;;4880152;29;20017;-82
2022/05/05 02:27:10;;;;;;;7.10;3.55;;;10.00;99.90;;;;;;4879837;29;20029;-83
2022/05/05 02:29:36;;;;;;;6.97;4.15;;;9.90;99.90;;;;;;4881397;29;20025;-83
2022/05/05 02:32:03;;;;;;;6.15;4.03;;;9.90;99.90;;;;;;4880168;29;20025;-83
2022/05/05 02:34:29;;;;;;;5.32;3.70;;;9.90;99.90;;;;;;4881426;29;20488;-82
2022/05/05 02:39:39;;;;;;;7.28;3.90;;;9.70;99.90;;;;;;4881715;29;20048;-83
2022/05/05 02:42:05;;;;;;;6.07;3.67;;;9.60;99.90;;;;;;4881481;29;20025;-84
2022/05/05 02:44:31;;;;;;;6.68;3.90;;;9.60;99.90;;;;;;4881372;29;20129;-82
2022/05/05 02:46:58;;;;;;;6.32;3.50;;;9.60;99.90;;;;;;4879986;29;20484;-82
2022/05/05 02:49:27;;;;;;;6.00;4.00;;;9.50;99.90;;;;;;4880980;29;20040;-82
2022/05/05 02:51:53;;;;;;;7.22;4.50;;;9.60;99.90;;;;;;4881227;29;20029;-82
2022/05/05 02:57:23;;;;;;;7.15;3.83;;;9.50;99.90;;;;;;4841505;29;20037;-83
2022/05/05 02:59:55;;;;;;;7.15;3.90;;;9.30;99.90;;;;;;4873592;29;20415;-82
2022/05/05 03:02:21;;;;;;;6.00;3.53;;;9.30;99.90;;;;;;4881010;29;20037;-82
2022/05/05 03:04:47;;;;;;;6.35;3.78;;;9.30;99.90;;;;;;4880866;29;20032;-82
2022/05/05 03:07:13;;;;;;;7.68;4.20;;;9.20;99.90;;;;;;4880622;29;20029;-83
2022/05/05 03:09:40;;;;;;;6.53;3.70;;;9.30;99.90;;;;;;4863930;29;20142;-83
2022/05/05 03:12:06;;;;;;;7.90;4.53;;;9.30;99.90;;;;;;4880608;29;20036;-83
2022/05/05 03:14:32;;;;;;;7.07;4.45;;;9.30;99.90;;;;;;4880578;29;20404;-82
2022/05/05 03:16:58;;;;;;;6.10;4.00;;;9.30;99.90;;;;;;4879511;29;20024;-82
2022/05/05 03:19:24;;;;;;;7.07;3.95;;;9.30;99.90;;;;;;4880565;29;20029;-83
2022/05/05 03:21:50;;;;;;;6.20;3.85;;;9.30;99.90;;;;;;4879391;29;20028;-83
2022/05/05 03:24:15;;;;;;;7.53;4.22;;;9.30;99.90;;;;;;4863603;29;20021;-82
2022/05/05 03:26:41;;;;;;;6.53;3.97;;;9.30;99.90;;;;;;4880372;29;20085;-82
2022/05/05 03:29:07;;;;;;;7.78;4.68;;;9.20;99.90;;;;;;4863847;29;20029;-82
2022/05/05 03:31:32;;;;;;;5.78;4.07;;;9.10;99.90;;;;;;4880064;29;20049;-83
2022/05/05 03:33:58;;;;;;;6.60;4.35;;;9.20;99.90;;;;;;4879027;29;20465;-82
2022/05/05 03:36:24;;;;;;;7.93;4.30;;;9.10;99.90;;;;;;4879219;29;20404;-83
2022/05/05 03:38:50;;;;;;;7.40;4.30;;;9.10;99.90;;;;;;4879981;29;20033;-82
2022/05/05 03:41:16;;;;;;;7.07;4.07;;;9.10;99.90;;;;;;4878952;29;20040;-82
2022/05/05 03:43:42;;;;;;;8.48;4.82;;;9.10;99.90;;;;;;4880136;29;20029;-82
2022/05/05 03:46:08;;;;;;;7.30;4.25;;;9.00;99.90;;;;;;4879149;29;20029;-83
2022/05/05 03:48:33;;;;;;;8.65;5.15;;;9.00;99.90;;;;;;4878316;29;20068;-83
2022/05/05 03:50:59;;;;;;;6.68;4.40;;;9.00;99.90;;;;;;4878895;29;20025;-83
2022/05/05 03:53:25;;;;;;;8.57;4.53;;;9.00;99.90;;;;;;4879688;29;20116;-83
2022/05/05 03:55:51;;;;;;;6.80;4.60;;;9.00;99.90;;;;;;4863000;29;20032;-82
2022/05/05 03:58:17;;;;;;;7.15;4.22;;;8.90;99.90;;;;;;4862892;29;20036;-83
2022/05/05 04:00:43;;;;;;;8.05;4.93;;;8.90;99.90;;;;;;4863001;29;20021;-83
2022/05/05 04:05:52;;;;;;;7.40;4.45;;;8.90;99.90;;;;;;4880311;29;20052;-82
2022/05/05 04:08:18;;;;;;;6.32;4.22;;;9.00;99.90;;;;;;4862960;29;20036;-81
2022/05/05 04:10:44;;;;;;;8.73;4.40;;;8.90;99.90;;;;;;4862856;29;20040;-82
2022/05/05 04:13:09;;;;;;;8.43;4.80;;;9.00;99.90;;;;;;4878597;29;20025;-82
2022/05/05 04:15:35;;;;;;;7.93;4.53;;;9.00;99.90;;;;;;4862882;29;20591;-82
2022/05/05 04:18:01;;;;;;;7.43;4.65;;;9.10;99.90;;;;;;4863194;29;20082;-82
2022/05/05 04:20:27;;;;;;;9.27;4.30;;;9.20;99.90;;;;;;4879205;29;20076;-82
2022/05/05 04:22:55;;;;;;;9.18;5.13;;;9.20;99.90;;;;;;4879647;29;20036;-83
2022/05/05 04:25:21;;;;;;;5.70;4.13;;;9.20;99.90;;;;;;4878347;29;20025;-83
2022/05/05 04:27:47;;;;;;;6.97;4.25;;;9.30;99.90;;;;;;4879385;29;20048;-82
2022/05/05 04:30:16;;;;;;;7.47;4.50;;;9.30;99.90;;;;;;4879494;29;20029;-83
2022/05/05 04:32:44;;;;;;;7.47;4.50;;;9.30;99.90;;;;;;4880069;29;20021;-83
2022/05/05 04:35:11;;;;;;;7.82;4.40;;;9.30;99.90;;;;;;4878330;29;20469;-82
2022/05/05 04:37:38;;;;;;;8.10;4.57;;;9.30;99.90;;;;;;4860498;29;20032;-81
2022/05/05 04:40:04;;;;;;;5.82;4.20;;;9.40;99.90;;;;;;4874294;29;20488;-81
2022/05/05 04:42:30;;;;;;;6.80;4.30;;;9.40;99.90;;;;;;4875606;29;20037;-82
2022/05/05 04:44:55;;;;;;;7.35;4.40;;;9.40;99.90;;;;;;4859237;29;20029;-82
2022/05/05 04:47:21;;;;;;;6.15;4.07;;;9.40;99.90;;;;;;4874842;29;20120;-82
2022/05/05 04:49:47;;;;;;;6.20;3.70;;;9.50;99.90;;;;;;4875625;29;20396;-82
2022/05/05 04:52:13;;;;;;;7.90;4.15;;;9.60;99.90;;;;;;4858874;29;20112;-82
2022/05/05 04:54:38;;;;;;;6.15;4.25;;;9.60;99.90;;;;;;4858754;29;20052;-82
2022/05/05 04:57:04;;;;;;;6.93;4.30;;;9.60;99.90;;;;;;4875414;29;20392;-82
2022/05/05 04:59:30;;;;;;;6.88;4.20;;;9.60;99.90;;;;;;4876701;29;20495;-82
2022/05/05 05:01:58;;;;;;;8.30;4.20;;;9.60;99.90;;;;;;4879465;29;20028;-82
2022/05/05 05:04:24;;;;;;;6.25;3.80;;;9.70;99.90;;;;;;4878059;29;20035;-82
2022/05/05 05:06:50;;;;;;;5.82;4.13;;;9.70;99.90;;;;;;4862168;29;20133;-83
2022/05/05 05:09:15;;;;;;;7.15;3.88;;;9.80;99.90;;;;;;4879226;29;20049;-81
2022/05/05 05:11:41;;;;;;;7.10;4.10;;;9.80;99.90;;;;;;4877835;29;20361;-81
2022/05/05 05:14:06;;;;;;;6.93;4.50;;;9.80;99.90;;;;;;4877896;29;20041;-82
2022/05/05 05:16:32;;;;;;;7.72;4.20;;;9.80;99.90;;;;;;4879059;29;20775;-81
2022/05/05 05:18:58;;;;;;;7.03;4.25;;;9.80;99.90;;;;;;4877667;29;20033;-81
2022/05/05 05:21:24;;;;;;;6.00;4.05;;;9.80;99.90;;;;;;4879128;29;20121;-81
2022/05/05 05:23:50;;;;;;;5.97;4.28;;;9.90;99.90;;;;;;4877906;29;20823;-81
2022/05/05 05:26:15;;;;;;;5.82;4.03;;;9.90;99.90;;;;;;4880274;29;20025;-81
2022/05/05 05:28:41;;;;;;;9.55;4.65;;;9.90;99.90;;;;;;4880491;29;20400;-82
2022/05/05 05:31:07;;;;;;;7.65;4.40;;;9.90;99.90;;;;;;4880938;29;20523;-81
2022/05/05 05:33:32;;;;;;;6.25;3.95;;;9.90;99.90;;;;;;4881141;29;20029;-82
2022/05/05 05:35:58;;;;;;;7.95;4.20;;;9.90;99.90;;;;;;4882186;29;20029;-82
2022/05/05 05:38:24;;;;;;;6.55;4.18;;;10.00;99.90;;;;;;4882064;29;20040;-82
2022/05/05 05:40:50;;;;;;;8.52;4.60;;;10.00;99.90;;;;;;4882079;29;20472;-81
2022/05/05 05:43:16;;;;;;;7.75;5.70;;;10.00;99.90;;;;;;4881072;29;20032;-82
2022/05/05 05:45:41;;;;;;;7.68;5.32;;;10.10;99.90;;;;;;4882587;29;20369;-81
2022/05/05 05:48:07;;;;;;;9.20;6.30;;;10.20;99.90;;;;;;4882187;29;20047;-83
2022/05/05 05:50:33;;;;;;;14.52;6.40;;;10.20;99.90;;;;;;4881094;29;20045;-83
2022/05/05 05:52:59;;;;;;;10.63;6.00;;;10.20;99.90;;;;;;4880472;29;20037;-83
2022/05/05 05:55:25;;;;;;;8.82;5.45;;;10.20;99.90;;;;;;4880816;29;20551;-83
2022/05/05 05:57:51;;;;;;;9.85;6.13;;;10.20;99.90;;;;;;4882260;29;20088;-83
2022/05/05 06:00:17;;;;;;;10.38;6.35;;;10.30;99.90;;;;;;4881842;29;20026;-82
2022/05/05 06:05:27;;;;;;;7.88;5.65;;;10.40;99.90;;;;;;4882571;29;20111;-84
2022/05/05 06:08:03;;;;;;;10.48;6.88;;;10.40;99.90;;;;;;4880900;29;20037;-83
2022/05/05 06:10:33;;;;;;;12.10;7.22;;;10.50;99.90;;;;;;4882058;29;20021;-83
2022/05/05 06:12:59;;;;;;;11.30;6.45;;;10.50;99.90;;;;;;4880552;29;20039;-84
2022/05/05 06:15:25;;;;;;;12.38;7.78;;;10.70;99.90;;;;;;4881811;29;20392;-83
2022/05/05 06:17:52;;;;;;;13.75;7.55;;;10.80;99.90;;;;;;4880405;29;20081;-83
2022/05/05 06:20:18;;;;;;;9.10;7.07;;;10.90;99.90;;;;;;4880254;29;20033;-83
2022/05/05 06:22:43;;;;;;;10.48;6.18;;;11.00;99.90;;;;;;4881505;29;20162;-83
2022/05/05 06:25:12;;;;;;;10.55;6.55;;;11.00;99.90;;;;;;4880334;29;20029;-83
2022/05/05 06:27:39;;;;;;;9.60;6.15;;;11.10;99.90;;;;;;4880076;29;20029;-83
2022/05/05 06:30:06;;;;;;;12.00;6.65;;;11.10;99.90;;;;;;4880304;29;20088;-84
2022/05/05 06:32:32;;;;;;;10.38;6.30;;;11.20;99.90;;;;;;4881495;29;20052;-83
2022/05/05 06:34:58;;;;;;;13.35;7.97;;;11.20;99.90;;;;;;4880245;29;20048;-84
2022/05/05 06:37:24;;;;;;;10.68;6.80;;;11.30;99.90;;;;;;4880235;29;20475;-84
2022/05/05 06:39:50;;;;;;;10.43;6.80;;;11.30;99.90;;;;;;4880992;29;20400;-84
2022/05/05 06:42:16;;;;;;;12.18;6.72;;;11.30;99.90;;;;;;4880698;29;20489;-84
2022/05/05 06:44:42;;;;;;;10.18;6.53;;;11.40;99.90;;;;;;4881369;29;20061;-84
2022/05/05 06:47:08;;;;;;;8.73;5.75;;;11.40;99.90;;;;;;4880403;29;20021;-85
2022/05/05 06:49:37;;;;;;;10.65;6.45;;;11.50;99.90;;;;;;4879905;29;20419;-84
2022/05/05 06:52:06;;;;;;;9.85;6.47;;;11.50;99.90;;;;;;4881015;29;20511;-84
2022/05/05 06:54:31;;;;;;;8.75;5.88;;;11.60;99.90;;;;;;4879530;29;20060;-84
2022/05/05 06:56:57;;;;;;;8.82;5.40;;;11.70;99.90;;;;;;4879539;29;20392;-83
2022/05/05 06:59:24;;;;;;;8.98;6.13;;;11.70;99.90;;;;;;4880160;29;20025;-84
2022/05/05 07:01:53;;;;;;;9.85;5.78;;;11.80;99.90;;;;;;4880133;29;20029;-84
2022/05/05 07:07:10;;;;;;;10.43;5.95;;;12.00;99.90;;;;;;4881739;29;20044;-84
2022/05/05 07:12:20;;;;;;;9.52;5.72;;;12.10;99.90;;;;;;4881078;29;20448;-83
2022/05/05 07:14:45;;;;;;;7.78;5.45;;;12.20;99.90;;;;;;4881255;29;20025;-84
2022/05/05 07:17:12;;;;;;;9.80;6.00;;;12.40;99.90;;;;;;4880736;29;20029;-84
2022/05/05 07:19:39;;;;;;;9.40;5.75;;;12.50;99.90;;;;;;4879291;29;20033;-84
2022/05/05 07:22:05;;;;;;;8.00;5.55;;;12.60;99.90;;;;;;4878475;29;20028;-84
2022/05/05 07:24:31;;;;;;;8.75;5.53;;;12.80;99.90;;;;;;4880905;29;20037;-83
2022/05/05 07:26:57;;;;;;;11.45;6.40;;;13.00;99.90;;;;;;4879365;29;20024;-84
2022/05/05 07:29:22;;;;;;;10.23;6.32;;;13.20;99.90;;;;;;4880569;29;20060;-84
2022/05/05 07:31:48;;;;;;;13.45;7.20;;;13.50;99.90;;;;;;4879265;29;20037;-84
2022/05/05 07:34:15;;;;;;;12.45;7.50;;;13.70;99.90;;;;;;4879174;29;20029;-84
2022/05/05 07:36:41;;;;;;;11.57;7.80;;;13.90;99.90;;;;;;4880382;29;20112;-84
2022/05/05 07:39:07;;;;;;;11.30;6.88;;;14.00;99.90;;;;;;4879028;29;20075;-85
2022/05/05 07:41:32;;;;;;;8.57;5.72;;;14.20;99.90;;;;;;4880345;29;20396;-85
2022/05/05 07:43:58;;;;;;;12.85;6.78;;;14.50;99.90;;;;;;4880478;29;20116;-85
2022/05/05 07:46:24;;;;;;;12.25;6.45;;;14.60;99.90;;;;;;4878935;29;20025;-85
2022/05/05 07:48:50;;;;;;;11.65;6.72;;;14.80;99.90;;;;;;4878757;29;20440;-85
2022/05/05 07:51:16;;;;;;;13.05;7.43;;;15.00;99.90;;;;;;4880175;29;20031;-85
2022/05/05 07:53:41;;;;;;;16.13;7.15;;;15.10;99.90;;;;;;4878373;29;20057;-85
2022/05/05 07:56:07;;;;;;;14.13;6.97;;;15.20;99.90;;;;;;4878491;29;20464;-84
2022/05/05 07:58:34;;;;;;;11.68;6.93;;;15.30;99.90;;;;;;4879823;29;20033;-83
2022/05/05 08:00:59;;;;;;;10.05;5.90;;;15.40;99.90;;;;;;4879656;29;20025;-83
2022/05/05 08:03:25;;;;;;;10.25;5.85;;;15.50;99.90;;;;;;4878430;29;20416;-82
2022/05/05 08:05:51;;;;;;;10.05;5.35;;;15.60;99.90;;;;;;4878306;29;20025;-83
2022/05/05 08:08:16;;;;;;;10.35;5.28;;;15.80;99.90;;;;;;4879491;29;20040;-83
2022/05/05 08:10:42;;;;;;;11.63;5.65;;;16.00;99.90;;;;;;4878509;29;20021;-85
2022/05/05 08:13:09;;;;;;;9.63;5.97;;;16.10;99.90;;;;;;4879659;29;20029;-84
2022/05/05 08:15:35;;;;;;;10.35;5.75;;;16.20;99.90;;;;;;4878662;29;20050;-84
2022/05/05 08:18:01;;;;;;;10.55;5.93;;;16.30;99.90;;;;;;4879640;29;20480;-83
2022/05/05 08:20:26;;;;;;;9.38;5.30;;;16.40;99.90;;;;;;4879694;29;20092;-84
2022/05/05 08:22:52;;;;;;;8.13;5.40;;;16.50;99.90;;;;;;4878157;29;20040;-83
2022/05/05 08:30:48;;;;;;;8.20;4.68;;;16.90;99.90;;;;;;4879225;29;20048;-82
2022/05/05 08:33:13;;;;;;;7.80;4.53;;;17.00;99.90;;;;;;4879591;29;20037;-85
2022/05/05 08:35:41;;;;;;;11.05;6.70;;;17.10;99.90;;;;;;4876713;29;20449;-83
2022/05/05 08:38:07;;;;;;;10.40;6.07;;;17.20;98.90;;;;;;4880118;29;20491;-85
2022/05/05 08:40:34;;;;;;;10.35;5.32;;;17.30;99.10;;;;;;4878774;29;20029;-84
2022/05/05 08:43:00;;;;;;;8.00;4.85;;;17.40;99.00;;;;;;4877675;29;20032;-83
2022/05/05 08:45:28;;;;;;;9.50;5.03;;;17.50;98.80;;;;;;4880643;29;20541;-83
2022/05/05 08:47:54;;;;;;;7.53;4.22;;;17.60;98.40;;;;;;4880614;29;20051;-83
2022/05/05 08:50:23;;;;;;;9.38;5.28;;;17.60;98.50;;;;;;4879652;29;20025;-84
2022/05/05 08:52:50;;;;;;;9.45;4.57;;;17.70;98.20;;;;;;4888008;29;20037;-82
2022/05/05 08:55:17;;;;;;;8.93;5.22;;;17.90;98.10;;;;;;4878215;29;20588;-83
2022/05/05 08:57:43;;;;;;;10.75;5.15;;;17.90;98.00;;;;;;4864423;29;20037;-82
2022/05/05 09:00:10;;;;;;;8.43;5.57;;;17.90;97.70;;;;;;4878116;29;20108;-82
2022/05/05 09:02:36;;;;;;;10.13;4.95;;;17.90;97.70;;;;;;4878843;29;20033;-82
2022/05/05 09:05:03;;;;;;;9.13;4.90;;;18.00;97.60;;;;;;4877217;29;20025;-82
2022/05/05 09:07:49;;;;;;;8.63;5.18;;;18.10;97.50;;;;;;4877169;29;20029;-82
2022/05/05 09:10:17;;;;;;;10.18;5.30;;;18.10;97.10;;;;;;4878017;29;20033;-82
2022/05/05 09:12:55;;;;;;;10.50;5.38;;;18.00;97.20;;;;;;4863076;29;20030;-82
2022/05/05 09:15:29;;;;;;;10.95;5.50;;;18.10;97.00;;;;;;4875508;29;20025;-83
2022/05/05 09:17:54;;;;;;;9.05;5.32;;;18.20;97.00;;;;;;4879476;29;20021;-82
2022/05/05 09:20:34;;;;;;;9.57;5.72;;;18.30;96.90;;;;;;4878591;29;20033;-82
2022/05/05 09:23:00;;;;;;;9.88;5.38;;;18.40;96.70;;;;;;4888839;29;20031;-82
2022/05/05 09:25:44;;;;;;;8.65;5.13;;;18.40;96.60;;;;;;4879468;29;20033;-81
2022/05/05 09:28:20;;;;;;;11.07;5.00;;;18.50;96.60;;;;;;4889058;29;20468;-81
2022/05/05 09:30:55;;;;;;;8.73;5.07;;;18.50;96.50;;;;;;4886851;29;20025;-81
2022/05/05 09:33:44;;;;;;;8.80;5.32;;;18.70;96.30;;;;;;4879768;29;20511;-81
2022/05/05 09:36:14;;;;;;;11.63;4.88;;;18.80;96.30;;;;;;4881437;29;20083;-81
2022/05/05 09:38:57;;;;;;;8.90;5.90;;;19.00;96.40;;;;;;4887331;29;20270;-83
2022/05/05 09:41:28;;;;;;;9.35;6.40;;;19.10;96.20;;;;;;4894622;29;20033;-81
2022/05/05 09:43:55;;;;;;;10.95;5.78;;;19.20;96.10;;;;;;4865978;29;20045;-81
2022/05/05 09:46:25;;;;;;;9.88;5.70;;;19.20;96.20;;;;;;4890229;29;20032;-81
2022/05/05 09:48:51;;;;;;;12.13;7.35;;;19.30;96.10;;;;;;4898042;29;20052;-81
2022/05/05 09:51:17;;;;;;;11.20;7.50;;;19.40;95.90;;;;;;4900769;29;20025;-81
2022/05/05 09:59:30;;;;;;;9.55;5.80;;;19.50;95.90;;;;;;4903045;29;20047;-81
2022/05/05 10:02:04;;;;;;;10.73;6.60;;;19.60;95.60;;;;;;4887288;29;20042;-81
2022/05/05 10:04:33;;;;;;;11.43;7.35;;;19.60;95.50;;;;;;4899130;29;20094;-81
2022/05/05 10:07:02;;;;;;;16.98;10.88;;;19.70;95.30;;;;;;4883989;29;20021;-81
2022/05/05 10:09:28;;;;;;;17.95;10.05;;;19.70;94.60;;;;;;4899345;29;20037;-81
2022/05/05 10:11:55;;;;;;;16.38;11.63;;;19.50;94.50;;;;;;4898807;29;20089;-81
2022/05/05 10:14:21;;;;;;;12.07;8.20;;;19.50;94.20;;;;;;4897524;29;20079;-81
2022/05/05 10:16:48;;;;;;;10.88;7.68;;;19.50;94.50;;;;;;4899165;29;20021;-82
2022/05/05 10:19:15;;;;;;;14.27;9.98;;;19.70;94.60;;;;;;4908714;29;20035;-82
2022/05/05 10:22:05;;;;;;;10.95;8.20;;;19.90;94.00;;;;;;4879140;29;20096;-80
2022/05/05 10:24:43;;;;;;;13.35;8.95;;;20.20;94.30;;;;;;4884997;29;20404;-81
2022/05/05 10:27:10;;;;;;;9.90;6.80;;;20.60;93.90;;;;;;4898389;29;20036;-81
2022/05/05 10:29:42;;;;;;;11.98;7.80;;;20.90;93.90;;;;;;4887794;29;20040;-81
2022/05/05 10:32:09;;;;;;;13.05;9.18;;;21.30;93.90;;;;;;4888101;29;20140;-81
2022/05/05 10:34:39;;;;;;;12.32;8.93;;;21.50;93.40;;;;;;4891411;29;20028;-81
2022/05/05 10:37:13;;;;;;;12.93;8.10;;;21.70;93.10;;;;;;4892421;29;20049;-82
2022/05/05 10:39:42;;;;;;;13.60;10.07;;;21.90;93.10;;;;;;4865874;29;20025;-82
2022/05/05 10:42:35;;;;;;;13.32;8.75;;;22.10;92.50;;;;;;4879900;29;20032;-81
2022/05/05 10:45:13;;;;;;;11.85;7.40;;;22.10;92.60;;;;;;4879761;29;20080;-81
2022/05/05 10:48:06;;;;;;;9.45;6.75;;;22.40;92.60;;;;;;4866426;29;20081;-83
2022/05/05 10:50:43;;;;;;;14.75;9.70;;;22.70;92.50;;;;;;4883073;29;20816;-82
2022/05/05 10:53:42;;;;;;;16.00;9.68;;;22.80;91.20;;;;;;4886823;29;20143;-83
2022/05/05 10:56:27;;;;;;;10.93;8.38;;;22.50;91.10;;;;;;4869400;29;20021;-83
2022/05/05 10:59:03;;;;;;;9.30;7.03;;;22.60;91.20;;;;;;4882111;29;20033;-82
2022/05/05 11:01:56;;;;;;;9.55;7.05;;;22.60;91.30;;;;;;4893620;29;20091;-83
2022/05/05 11:04:30;;;;;;;12.38;8.30;;;23.10;91.20;;;;;;4882132;29;20517;-82
2022/05/05 11:07:25;;;;;;;10.90;8.20;;;23.30;91.10;;;;;;4887647;29;20025;-84
2022/05/05 11:09:51;;;;;;;9.77;7.05;;;23.50;90.70;;;;;;4883025;29;20477;-82
2022/05/05 11:12:17;;;;;;;12.77;8.85;;;23.50;90.60;;;;;;4889357;29;20109;-82
2022/05/05 11:23:49;;;;;;;8.00;5.82;;;24.20;87.60;;;;;;4879495;29;20101;-82
2022/05/05 11:26:20;;;;;;;9.02;6.28;;;24.40;87.40;;;;;;4889097;29;20056;-82
2022/05/05 11:28:47;;;;;;;8.48;4.93;;;24.50;86.30;;;;;;4888579;29;20074;-82
2022/05/05 11:31:21;;;;;;;9.57;5.65;;;24.80;86.40;;;;;;4881898;29;20058;-82
2022/05/05 11:33:53;;;;;;;8.73;6.85;;;25.10;86.30;;;;;;4884257;29;20043;-83
2022/05/05 11:36:20;;;;;;;10.95;6.53;;;25.40;85.60;;;;;;4875657;29;20029;-82
2022/05/05 11:38:46;;;;;;;10.90;7.10;;;25.60;85.30;;;;;;4887233;29;20017;-81
2022/05/05 11:41:15;;;;;;;13.18;7.88;;;25.70;84.90;;;;;;4879215;29;20033;-81
2022/05/05 11:46:26;;;;;;;11.60;7.55;;;26.00;84.50;;;;;;4879391;29;20080;-81
2022/05/05 11:48:54;;;;;;;10.65;7.38;;;26.10;83.90;;;;;;4879844;29;20437;-81
2022/05/05 11:51:21;;;;;;;9.90;7.35;;;26.00;83.30;;;;;;4876776;29;20429;-81
2022/05/05 11:53:47;;;;;;;10.40;7.30;;;25.80;83.60;;;;;;4876739;29;20401;-82
2022/05/05 11:56:13;;;;;;;12.13;8.73;;;25.70;83.00;;;;;;4875839;29;20024;-81
2022/05/05 12:01:38;;;;;;;9.38;6.25;;;25.50;80.80;;;;;;4877761;29;20043;-81
2022/05/05 12:04:04;;;;;;;7.50;5.45;;;25.50;81.80;;;;;;4884398;29;20682;-81
2022/05/05 12:06:31;;;;;;;10.38;7.70;;;25.50;81.90;;;;;;4871847;29;20079;-81
2022/05/05 12:08:57;;;;;;;8.52;5.88;;;25.60;80.30;;;;;;4878327;29;20037;-81
2022/05/05 12:11:28;;;;;;;8.73;6.85;;;25.60;81.30;;;;;;4890348;29;20028;-81
2022/05/05 12:14:00;;;;;;;10.30;7.10;;;25.60;81.10;;;;;;4876360;29;20120;-81
2022/05/05 12:16:30;;;;;;;9.90;6.33;;;25.60;80.90;;;;;;4883883;29;20472;-81
2022/05/05 12:18:56;;;;;;;11.05;7.88;;;25.90;80.70;;;;;;4875936;29;20277;-81
2022/05/05 12:21:22;;;;;;;10.27;7.72;;;25.80;79.20;;;;;;4878200;29;20040;-81
2022/05/05 12:24:02;;;;;;;8.55;5.60;;;25.60;78.40;;;;;;4878483;29;20040;-81
2022/05/05 12:26:33;;;;;;;8.40;6.53;;;25.80;79.20;;;;;;4878199;29;20029;-81
2022/05/05 12:28:59;;;;;;;8.30;6.35;;;25.80;79.00;;;;;;4866898;29;20041;-81
2022/05/05 12:31:28;;;;;;;11.27;7.93;;;25.60;79.50;;;;;;4881095;29;20506;-83
2022/05/05 12:33:54;;;;;;;8.88;6.90;;;25.60;79.20;;;;;;4885327;29;20021;-81
2022/05/05 12:36:27;;;;;;;12.18;7.72;;;25.50;79.20;;;;;;4886249;29;20021;-82
2022/05/05 12:39:08;;;;;;;8.90;6.18;;;25.50;79.80;;;;;;4874300;29;20040;-81
2022/05/05 12:41:34;;;;;;;8.77;6.15;;;25.50;80.40;;;;;;4875309;29;20523;-80
2022/05/05 12:44:08;;;;;;;10.15;6.78;;;25.60;80.30;;;;;;4868790;29;20029;-81
2022/05/05 12:46:34;;;;;;;11.63;8.05;;;25.60;79.80;;;;;;4875172;29;20036;-81
2022/05/05 12:49:00;;;;;;;9.93;7.28;;;25.80;78.80;;;;;;4874869;29;20041;-81
2022/05/05 12:51:30;;;;;;;10.55;6.80;;;25.90;78.00;;;;;;4874590;29;20092;-80
2022/05/05 12:59:47;;;;;;;10.27;5.75;;;26.80;76.90;;;;;;4847460;29;20033;-82
2022/05/05 13:02:13;;;;;;;7.43;5.13;;;27.30;76.20;;;;;;4845510;29;20474;-82
2022/05/05 13:04:39;;;;;;;8.07;5.60;;;27.80;76.40;;;;;;4854789;29;20034;-81
2022/05/05 13:07:05;;;;;;;9.90;5.60;;;28.20;76.20;;;;;;4867978;29;20025;-82
2022/05/05 13:09:31;;;;;;;7.38;4.88;;;28.50;75.00;;;;;;4886623;29;20515;-82
2022/05/05 13:11:56;;;;;;;8.00;6.13;;;28.80;75.20;;;;;;4885758;29;20025;-82
2022/05/05 13:14:22;;;;;;;6.57;4.82;;;29.20;74.30;;;;;;4877440;29;20104;-82
2022/05/05 13:16:48;;;;;;;6.80;4.28;;;29.20;73.40;;;;;;4883909;29;20033;-82
2022/05/05 13:19:14;;;;;;;5.63;4.70;;;29.00;72.50;;;;;;4878320;29;20109;-82
2022/05/05 13:21:40;;;;;;;8.25;5.53;;;28.90;72.40;;;;;;4886430;29;20033;-81
2022/05/05 13:24:07;;;;;;;5.95;4.47;;;29.00;71.80;;;;;;4886860;29;20597;-81
2022/05/05 13:26:33;;;;;;;11.15;4.72;;;29.10;70.80;;;;;;4881886;29;20036;-81
2022/05/05 13:29:00;;;;;;;7.45;4.63;;;29.00;71.10;;;;;;4886887;29;20041;-81
2022/05/05 13:31:25;;;;;;;7.63;5.15;;;28.80;70.90;;;;;;4881746;29;20489;-81
2022/05/05 13:33:52;;;;;;;6.40;4.50;;;28.90;71.20;;;;;;4889682;29;20032;-81
2022/05/05 13:36:18;;;;;;;5.57;3.90;;;29.10;71.20;;;;;;4881561;29;20073;-82
2022/05/05 13:38:44;;;;;;;6.15;4.40;;;29.50;71.40;;;;;;4886947;29;20425;-82
2022/05/05 13:41:09;;;;;;;8.73;5.53;;;29.70;69.90;;;;;;4881484;29;20634;-81
2022/05/05 13:43:35;;;;;;;7.10;5.43;;;29.20;69.20;;;;;;4883690;29;20051;-81
2022/05/05 13:46:01;;;;;;;7.57;5.53;;;28.90;69.80;;;;;;4871358;29;20025;-81